Time;durP1;ratioP1;P1;durP2;ratioP2;P2;SDS_P1;SDS_P2;PMS_P1;PMS_P2;Temp;Humidity;BMP_temperature;BMP_pressure;BME280_temperature;BME280_humidity;BME280_pressure;Samples;Min_cycle;Max_cycle;Signal;HPM_P1;HPM_P2
2023/06/07 00:01:08;;;;;;;4.93;4.47;;;18.10;41.90;;;;;;4973582;28;20069;-83
2023/06/07 00:03:36;;;;;;;7.20;5.15;;;18.10;42.00;;;;;;4974419;28;20037;-82
2023/06/07 00:06:03;;;;;;;4.63;4.10;;;18.00;41.90;;;;;;4976849;28;20062;-82
2023/06/07 00:08:33;;;;;;;5.30;4.78;;;18.00;42.00;;;;;;4983646;28;20037;-81
2023/06/07 00:11:02;;;;;;;5.15;4.40;;;18.00;42.00;;;;;;4976777;28;20076;-84
2023/06/07 00:13:28;;;;;;;6.40;4.93;;;17.90;41.90;;;;;;4981457;28;20038;-82
2023/06/07 00:16:04;;;;;;;4.30;3.90;;;17.80;41.80;;;;;;4977178;28;20082;-81
2023/06/07 00:18:33;;;;;;;5.30;4.20;;;17.80;42.50;;;;;;4978013;28;20027;-82
2023/06/07 00:21:00;;;;;;;5.03;4.53;;;17.70;41.80;;;;;;4971576;28;20454;-82
2023/06/07 00:23:28;;;;;;;5.20;4.78;;;17.70;41.90;;;;;;4983188;28;20283;-82
2023/06/07 00:25:55;;;;;;;6.65;4.32;;;17.60;41.80;;;;;;4979417;28;20031;-82
2023/06/07 00:28:22;;;;;;;4.90;4.40;;;17.60;41.90;;;;;;4979249;28;20548;-81
2023/06/07 00:30:51;;;;;;;5.68;4.88;;;17.50;41.90;;;;;;4981327;28;20041;-82
2023/06/07 00:33:17;;;;;;;4.57;3.60;;;17.40;41.80;;;;;;4983434;28;20537;-82
2023/06/07 00:35:43;;;;;;;5.28;4.50;;;17.40;41.90;;;;;;4985747;28;20117;-82
2023/06/07 00:38:09;;;;;;;6.30;4.93;;;17.30;41.90;;;;;;4985277;28;20128;-82
2023/06/07 00:40:36;;;;;;;5.30;4.80;;;17.20;41.80;;;;;;4984052;28;20211;-82
2023/06/07 00:43:05;;;;;;;6.13;4.65;;;17.10;41.70;;;;;;4993118;28;20034;-81
2023/06/07 00:45:40;;;;;;;4.85;4.35;;;17.10;41.80;;;;;;4989009;28;20125;-82
2023/06/07 00:48:10;;;;;;;5.05;4.38;;;17.00;41.80;;;;;;4978010;28;20280;-81
2023/06/07 00:50:37;;;;;;;5.95;5.30;;;17.00;41.90;;;;;;4981148;28;20045;-81
2023/06/07 00:53:03;;;;;;;5.47;4.90;;;16.90;41.80;;;;;;4982032;28;20186;-81
2023/06/07 00:55:32;;;;;;;5.22;4.57;;;16.90;41.90;;;;;;4984766;28;20050;-80
2023/06/07 00:57:59;;;;;;;6.72;4.38;;;16.90;42.00;;;;;;4988505;28;20102;-82
2023/06/07 01:00:29;;;;;;;5.13;4.72;;;16.80;41.90;;;;;;4988668;28;20042;-81
2023/06/07 01:02:57;;;;;;;5.65;5.03;;;16.80;42.00;;;;;;4984608;28;20551;-82
2023/06/07 01:05:26;;;;;;;6.70;5.95;;;16.70;41.90;;;;;;5002581;28;20045;-83
2023/06/07 01:07:54;;;;;;;5.70;4.68;;;16.70;42.00;;;;;;4987160;28;20397;-85
2023/06/07 01:10:26;;;;;;;5.43;5.03;;;16.60;41.90;;;;;;4985590;28;20055;-83
2023/06/07 01:12:54;;;;;;;5.88;4.97;;;16.60;41.90;;;;;;4987574;28;20031;-85
2023/06/07 01:15:22;;;;;;;6.05;4.93;;;16.50;41.80;;;;;;4978737;28;20114;-82
2023/06/07 01:18:04;;;;;;;6.65;4.80;;;16.50;42.00;;;;;;4977796;28;20037;-82
2023/06/07 01:20:35;;;;;;;5.25;4.68;;;16.50;42.00;;;;;;4982989;28;20038;-82
2023/06/07 01:23:05;;;;;;;5.78;5.13;;;16.40;41.90;;;;;;4981810;28;20034;-83
2023/06/07 01:25:32;;;;;;;5.03;4.38;;;16.40;42.00;;;;;;4983131;28;20135;-82
2023/06/07 01:28:00;;;;;;;5.68;5.18;;;16.30;41.90;;;;;;4981301;28;20065;-82
2023/06/07 01:30:31;;;;;;;5.45;4.95;;;16.30;42.00;;;;;;4981825;28;20046;-83
2023/06/07 01:33:01;;;;;;;8.27;5.63;;;16.20;41.90;;;;;;4986891;28;20041;-83
2023/06/07 01:35:34;;;;;;;5.40;4.90;;;16.20;42.00;;;;;;4984823;28;20038;-83
2023/06/07 01:38:03;;;;;;;4.65;4.25;;;16.20;42.10;;;;;;4988845;28;20489;-83
2023/06/07 01:40:37;;;;;;;4.80;4.40;;;16.10;42.00;;;;;;4989845;28;20117;-82
2023/06/07 01:43:10;;;;;;;4.60;4.20;;;16.00;42.50;;;;;;4988716;28;20042;-83
2023/06/07 01:45:39;;;;;;;5.13;4.63;;;16.00;42.00;;;;;;4981993;28;20045;-86
2023/06/07 01:48:06;;;;;;;5.65;4.85;;;16.00;42.10;;;;;;4987187;28;20078;-83
2023/06/07 01:50:32;;;;;;;5.03;4.55;;;15.90;42.60;;;;;;4986453;28;20031;-83
2023/06/07 01:52:58;;;;;;;5.30;4.82;;;15.90;42.10;;;;;;4985331;28;20463;-84
2023/06/07 01:55:26;;;;;;;5.75;4.50;;;15.90;42.20;;;;;;4988900;28;20073;-83
2023/06/07 01:58:07;;;;;;;5.80;4.40;;;15.80;42.10;;;;;;4989639;28;20076;-83
2023/06/07 02:00:58;;;;;;;5.60;5.10;;;15.80;42.20;;;;;;4986833;28;20490;-82
2023/06/07 02:03:45;;;;;;;6.60;4.50;;;15.80;42.40;;;;;;4987434;28;20034;-82
2023/06/07 02:06:24;;;;;;;4.20;3.72;;;15.70;42.20;;;;;;4986916;28;20520;-81
2023/06/07 02:08:54;;;;;;;4.80;4.10;;;15.70;42.20;;;;;;5004063;28;20551;-82
2023/06/07 02:11:25;;;;;;;4.55;3.90;;;15.70;42.20;;;;;;5001064;28;20046;-83
2023/06/07 02:13:58;;;;;;;4.65;4.20;;;15.60;42.10;;;;;;4978589;28;20116;-81
2023/06/07 02:16:37;;;;;;;7.15;4.50;;;15.60;42.20;;;;;;4988336;28;20041;-81
2023/06/07 02:19:07;;;;;;;5.25;3.97;;;15.60;42.30;;;;;;4988591;28;20034;-81
2023/06/07 02:21:39;;;;;;;8.43;4.30;;;15.50;42.10;;;;;;4984537;28;20591;-80
2023/06/07 02:24:06;;;;;;;4.13;3.40;;;15.50;42.20;;;;;;4984995;28;20038;-80
2023/06/07 02:26:33;;;;;;;4.57;4.18;;;15.50;42.30;;;;;;4983905;28;20080;-82
2023/06/07 02:29:01;;;;;;;4.32;3.92;;;15.50;42.30;;;;;;4990236;28;20046;-82
2023/06/07 02:31:31;;;;;;;4.70;4.10;;;15.40;42.20;;;;;;4989355;28;20038;-81
2023/06/07 02:34:00;;;;;;;7.68;5.15;;;15.40;42.30;;;;;;4986309;28;20116;-81
2023/06/07 02:36:32;;;;;;;4.50;3.80;;;15.40;42.40;;;;;;4987459;28;20046;-81
2023/06/07 02:39:08;;;;;;;4.72;3.88;;;15.30;42.30;;;;;;4987974;28;20036;-81
2023/06/07 02:41:34;;;;;;;4.90;3.97;;;15.30;42.40;;;;;;4975720;28;20038;-81
2023/06/07 02:44:01;;;;;;;5.63;4.10;;;15.20;42.30;;;;;;4992087;28;20117;-82
2023/06/07 02:46:27;;;;;;;5.80;4.05;;;15.20;42.40;;;;;;4982076;28;20042;-84
2023/06/07 02:48:56;;;;;;;3.80;3.42;;;15.20;42.50;;;;;;4986457;28;20042;-82
2023/06/07 02:51:25;;;;;;;4.10;3.70;;;15.20;42.60;;;;;;4985747;28;20179;-83
2023/06/07 02:53:53;;;;;;;4.25;3.65;;;15.10;42.50;;;;;;4986699;28;20051;-82
2023/06/07 02:56:21;;;;;;;5.75;4.60;;;15.00;42.40;;;;;;4986398;28;20034;-82
2023/06/07 02:58:50;;;;;;;5.47;4.25;;;15.00;42.50;;;;;;4986651;28;20501;-82
2023/06/07 03:01:17;;;;;;;5.72;3.90;;;15.00;42.60;;;;;;4986711;28;20045;-82
2023/06/07 03:03:48;;;;;;;3.92;3.60;;;15.00;42.60;;;;;;4970581;28;20512;-82
2023/06/07 03:06:20;;;;;;;4.27;3.80;;;15.00;42.70;;;;;;4987499;28;20084;-82
2023/06/07 03:08:47;;;;;;;4.38;3.97;;;15.00;42.70;;;;;;4986311;28;20543;-83
2023/06/07 03:11:21;;;;;;;6.10;3.70;;;15.00;42.80;;;;;;4985193;28;20133;-82
2023/06/07 03:13:52;;;;;;;5.05;4.00;;;15.00;42.80;;;;;;4985321;28;20037;-83
2023/06/07 03:16:29;;;;;;;4.95;4.00;;;14.90;42.60;;;;;;4986459;28;20080;-83
2023/06/07 03:19:01;;;;;;;4.97;3.75;;;15.00;43.00;;;;;;4985709;28;20026;-84
2023/06/07 03:21:28;;;;;;;4.15;3.75;;;15.00;42.90;;;;;;4971336;28;20041;-82
2023/06/07 03:23:57;;;;;;;4.93;4.20;;;14.90;42.80;;;;;;4977341;28;20042;-83
2023/06/07 03:26:29;;;;;;;4.07;3.67;;;15.00;42.90;;;;;;4968234;28;20043;-83
2023/06/07 03:29:03;;;;;;;3.80;3.50;;;14.90;42.80;;;;;;4982443;28;20065;-82
2023/06/07 03:31:45;;;;;;;4.95;3.95;;;14.90;42.80;;;;;;4983013;28;20132;-81
2023/06/07 03:34:16;;;;;;;5.25;4.75;;;14.90;42.80;;;;;;5002311;28;20065;-81
2023/06/07 03:36:42;;;;;;;3.80;3.50;;;14.90;42.80;;;;;;4975428;28;20042;-81
2023/06/07 03:39:12;;;;;;;4.65;3.90;;;14.90;42.90;;;;;;4985848;28;20093;-81
2023/06/07 03:41:45;;;;;;;4.97;4.57;;;14.80;42.80;;;;;;4982041;28;20121;-81
2023/06/07 03:44:34;;;;;;;4.32;3.92;;;14.80;42.80;;;;;;4985837;28;20038;-82
2023/06/07 03:47:04;;;;;;;4.43;3.97;;;14.80;42.90;;;;;;4988024;28;20152;-81
2023/06/07 03:49:31;;;;;;;5.75;3.70;;;14.80;42.90;;;;;;4982357;28;20049;-81
2023/06/07 03:51:57;;;;;;;4.45;3.83;;;14.80;43.00;;;;;;4985277;28;20497;-81
2023/06/07 03:54:24;;;;;;;4.80;4.00;;;14.80;43.00;;;;;;4985343;28;20145;-81
2023/06/07 03:56:50;;;;;;;4.50;4.10;;;14.80;43.10;;;;;;4985536;28;20066;-80
2023/06/07 03:59:19;;;;;;;5.30;4.20;;;14.80;43.10;;;;;;4985510;28;20034;-81
2023/06/07 04:01:51;;;;;;;4.47;3.88;;;14.80;43.10;;;;;;4985297;28;20034;-81
2023/06/07 04:04:17;;;;;;;4.40;3.67;;;14.80;43.10;;;;;;4982936;28;20030;-80
2023/06/07 04:06:44;;;;;;;4.07;3.67;;;14.80;43.20;;;;;;4984489;28;20046;-82
2023/06/07 04:09:10;;;;;;;4.72;4.22;;;14.80;43.20;;;;;;4984429;28;20038;-81
2023/06/07 04:11:36;;;;;;;4.68;3.67;;;14.80;43.20;;;;;;4985934;28;20039;-81
2023/06/07 04:14:03;;;;;;;3.90;3.22;;;14.80;43.20;;;;;;4984411;28;20046;-80
2023/06/07 04:16:30;;;;;;;4.40;4.00;;;14.80;43.30;;;;;;4984397;28;20291;-80
2023/06/07 04:19:00;;;;;;;5.07;3.60;;;14.80;43.30;;;;;;4985250;28;20042;-81
2023/06/07 04:21:32;;;;;;;4.90;4.05;;;14.80;43.30;;;;;;4983845;28;20042;-81
2023/06/07 04:24:00;;;;;;;4.47;4.00;;;14.80;43.30;;;;;;4973969;28;20039;-82
2023/06/07 04:26:31;;;;;;;4.00;3.60;;;14.80;43.30;;;;;;4984779;28;20046;-82
2023/06/07 04:29:01;;;;;;;4.23;3.60;;;14.80;43.30;;;;;;4998551;28;20034;-83
2023/06/07 04:31:34;;;;;;;4.20;3.47;;;14.80;43.30;;;;;;4973071;28;20053;-82
2023/06/07 04:34:01;;;;;;;3.63;3.22;;;14.80;43.30;;;;;;4980505;28;20093;-81
2023/06/07 04:36:38;;;;;;;4.20;3.80;;;14.80;43.30;;;;;;4976080;28;20053;-82
2023/06/07 04:39:09;;;;;;;4.63;3.33;;;14.80;43.30;;;;;;5000643;28;20145;-81
2023/06/07 04:41:37;;;;;;;3.95;3.50;;;14.80;43.20;;;;;;4999475;28;20030;-81
2023/06/07 04:44:05;;;;;;;3.17;2.85;;;14.80;43.20;;;;;;4994092;28;20434;-82
2023/06/07 04:46:39;;;;;;;3.92;2.95;;;14.80;43.30;;;;;;4971964;28;20093;-81
2023/06/07 04:49:09;;;;;;;4.50;3.63;;;14.80;43.20;;;;;;4972075;28;20055;-83
2023/06/07 04:51:36;;;;;;;3.58;3.03;;;14.80;43.10;;;;;;4981030;28;20136;-82
2023/06/07 04:54:16;;;;;;;5.85;3.22;;;14.80;43.10;;;;;;4961951;28;20698;-82
2023/06/07 04:56:46;;;;;;;3.10;2.65;;;14.90;43.90;;;;;;5003517;28;20509;-82
2023/06/07 04:59:34;;;;;;;3.60;3.13;;;14.90;43.30;;;;;;4983109;28;20520;-83
2023/06/07 05:02:09;;;;;;;3.20;2.90;;;14.90;43.20;;;;;;4972998;28;20403;-83
2023/06/07 05:04:40;;;;;;;4.93;3.85;;;15.00;43.30;;;;;;4984484;28;20151;-84
2023/06/07 05:07:15;;;;;;;4.05;3.28;;;15.00;43.30;;;;;;4990395;28;20030;-85
2023/06/07 05:09:46;;;;;;;3.53;2.95;;;15.00;43.20;;;;;;4977741;28;20047;-85
2023/06/07 05:12:16;;;;;;;6.45;4.43;;;15.10;43.40;;;;;;4987489;28;20505;-85
2023/06/07 05:14:46;;;;;;;4.00;2.90;;;15.10;43.30;;;;;;4981636;28;20345;-86
2023/06/07 05:17:19;;;;;;;4.40;3.13;;;15.10;43.20;;;;;;4972620;28;20262;-82
2023/06/07 05:19:46;;;;;;;3.40;2.40;;;15.20;43.30;;;;;;4980245;28;20575;-82
2023/06/07 05:22:14;;;;;;;3.50;2.65;;;15.20;43.30;;;;;;4976599;28;20092;-85
2023/06/07 05:24:50;;;;;;;3.80;3.03;;;15.20;43.20;;;;;;4976884;28;20049;-83
2023/06/07 05:27:17;;;;;;;3.10;2.80;;;15.30;43.30;;;;;;4980450;28;20126;-87
2023/06/07 05:29:43;;;;;;;4.63;2.97;;;15.30;43.30;;;;;;4986965;28;20086;-87
2023/06/07 05:32:10;;;;;;;3.97;3.58;;;15.40;43.30;;;;;;4986680;28;20045;-88
2023/06/07 05:34:38;;;;;;;3.47;3.15;;;15.50;43.50;;;;;;4980380;28;20313;-86
2023/06/07 05:37:05;;;;;;;4.72;3.08;;;15.50;43.40;;;;;;4981797;28;20493;-83
2023/06/07 05:39:31;;;;;;;3.33;3.03;;;15.60;43.40;;;;;;4977252;28;20073;-85
2023/06/07 05:41:58;;;;;;;3.30;2.80;;;15.60;43.30;;;;;;4978725;28;20272;-83
2023/06/07 05:44:34;;;;;;;4.90;2.63;;;15.70;43.40;;;;;;4980785;28;20037;-84
2023/06/07 05:47:04;;;;;;;3.38;2.47;;;15.70;43.30;;;;;;4978953;28;20079;-84
2023/06/07 05:49:31;;;;;;;3.50;3.17;;;15.90;43.60;;;;;;4975030;28;20486;-84
2023/06/07 05:52:20;;;;;;;3.90;2.95;;;16.00;43.70;;;;;;4974397;28;20054;-85
2023/06/07 05:54:51;;;;;;;6.03;4.00;;;16.10;43.70;;;;;;4979021;28;20526;-84
2023/06/07 05:57:23;;;;;;;5.10;3.40;;;16.20;44.00;;;;;;4979714;28;20042;-83
2023/06/07 05:59:50;;;;;;;4.93;3.90;;;16.30;44.40;;;;;;4971979;28;20065;-84
2023/06/07 06:02:16;;;;;;;6.03;3.38;;;16.50;44.70;;;;;;4982517;28;20084;-85
2023/06/07 06:04:43;;;;;;;4.05;3.50;;;16.70;44.90;;;;;;4982649;28;20486;-82
2023/06/07 06:07:10;;;;;;;3.80;3.45;;;16.80;44.90;;;;;;4993491;28;20514;-87
2023/06/07 06:09:36;;;;;;;3.92;3.13;;;17.00;45.00;;;;;;4977177;28;20432;-88
2023/06/07 06:12:02;;;;;;;6.03;3.13;;;17.20;45.00;;;;;;4984403;28;20330;-91
2023/06/07 06:14:28;;;;;;;5.72;2.85;;;17.40;45.00;;;;;;4984284;28;20033;-86
2023/06/07 06:16:55;;;;;;;4.30;3.58;;;17.70;45.10;;;;;;4979855;28;20077;-88
2023/06/07 06:19:25;;;;;;;3.58;3.25;;;17.90;45.10;;;;;;4985761;28;20030;-86
2023/06/07 06:21:54;;;;;;;3.10;2.75;;;18.30;45.20;;;;;;4974865;28;20390;-87
2023/06/07 06:24:20;;;;;;;6.65;3.63;;;18.70;45.40;;;;;;4982839;28;20323;-88
2023/06/07 06:26:46;;;;;;;3.75;2.83;;;19.00;45.10;;;;;;4982976;28;20382;-88
2023/06/07 06:29:12;;;;;;;4.32;3.80;;;19.50;45.10;;;;;;4980728;28;20046;-87
2023/06/07 06:31:40;;;;;;;4.78;3.38;;;19.90;45.00;;;;;;4983073;28;20089;-81
2023/06/07 06:34:10;;;;;;;4.30;2.75;;;20.30;45.00;;;;;;4981108;28;20332;-86
2023/06/07 06:36:36;;;;;;;4.00;2.92;;;20.60;44.80;;;;;;4982891;28;20038;-88
2023/06/07 06:39:03;;;;;;;4.22;3.05;;;20.90;44.90;;;;;;4983896;28;20034;-89
2023/06/07 06:41:30;;;;;;;4.65;3.80;;;21.10;44.80;;;;;;4981693;28;20049;-86
2023/06/07 06:43:57;;;;;;;3.90;2.90;;;21.50;45.20;;;;;;4978491;28;20070;-87
2023/06/07 06:46:23;;;;;;;3.00;2.67;;;21.90;45.40;;;;;;4985116;28;20054;-87
2023/06/07 06:48:50;;;;;;;3.42;3.13;;;22.30;45.50;;;;;;4977550;28;20336;-87
2023/06/07 06:51:22;;;;;;;3.63;2.60;;;22.70;45.40;;;;;;4979610;28;20197;-87
2023/06/07 06:53:51;;;;;;;3.03;2.67;;;23.10;45.40;;;;;;4976710;28;20038;-89
2023/06/07 06:56:17;;;;;;;4.50;2.85;;;23.50;45.50;;;;;;4979773;28;20494;-86
2023/06/07 06:58:43;;;;;;;3.42;3.13;;;23.90;45.50;;;;;;4977893;28;20019;-84
2023/06/07 07:01:14;;;;;;;3.58;2.95;;;24.20;45.30;;;;;;4980011;28;20092;-86
2023/06/07 07:03:40;;;;;;;2.80;2.60;;;24.70;45.30;;;;;;4978282;28;20101;-86
2023/06/07 07:06:07;;;;;;;4.43;2.70;;;25.10;45.00;;;;;;4979683;28;20104;-86
2023/06/07 07:08:53;;;;;;;3.85;2.95;;;25.40;44.40;;;;;;4971635;28;20042;-87
2023/06/07 07:11:20;;;;;;;3.70;2.47;;;25.70;43.90;;;;;;4978936;28;20609;-81
2023/06/07 07:13:46;;;;;;;3.65;3.25;;;25.70;43.60;;;;;;4985241;28;20046;-86
2023/06/07 07:16:16;;;;;;;3.95;2.70;;;25.50;43.20;;;;;;4976908;28;20042;-90
2023/06/07 07:18:45;;;;;;;3.28;2.97;;;25.30;43.20;;;;;;4979756;28;20034;-87
2023/06/07 07:21:12;;;;;;;3.42;2.80;;;25.10;43.30;;;;;;4970538;28;20070;-87
2023/06/07 07:23:41;;;;;;;4.68;3.20;;;24.80;43.10;;;;;;4981103;28;20038;-87
2023/06/07 07:26:07;;;;;;;4.63;3.00;;;24.50;42.80;;;;;;4979916;28;20096;-86
2023/06/07 07:28:33;;;;;;;3.58;3.28;;;24.30;42.70;;;;;;4982383;28;20287;-90
2023/06/07 07:31:02;;;;;;;4.57;3.10;;;24.10;42.60;;;;;;4977725;28;20125;-87
2023/06/07 07:33:28;;;;;;;3.75;2.97;;;23.90;42.40;;;;;;4979755;28;20470;-89
2023/06/07 07:35:54;;;;;;;4.93;3.20;;;23.90;42.50;;;;;;4977461;28;20050;-89
2023/06/07 07:38:20;;;;;;;3.17;2.78;;;23.70;42.80;;;;;;4989006;28;20105;-89
2023/06/07 07:40:49;;;;;;;3.90;3.13;;;23.60;42.10;;;;;;4980914;28;20121;-90
2023/06/07 07:43:15;;;;;;;3.53;3.22;;;23.50;42.10;;;;;;4987023;28;20030;-90
2023/06/07 07:45:41;;;;;;;4.35;3.63;;;23.50;42.20;;;;;;4981823;28;20469;-89
2023/06/07 07:48:07;;;;;;;8.23;3.83;;;23.50;42.10;;;;;;4977889;28;20142;-91
2023/06/07 07:51:00;;;;;;;4.35;3.53;;;23.50;41.90;;;;;;4919186;29;20522;-90
2023/06/07 07:53:26;;;;;;;3.25;2.75;;;23.60;42.00;;;;;;4980465;28;20062;-90
2023/06/07 07:55:55;;;;;;;3.90;3.47;;;23.70;42.10;;;;;;4967418;28;20339;-87
2023/06/07 07:58:21;;;;;;;4.97;3.92;;;23.90;42.00;;;;;;4971310;28;20536;-88
2023/06/07 08:00:47;;;;;;;3.03;2.80;;;24.10;42.10;;;;;;4977257;28;20131;-89
2023/06/07 08:03:13;;;;;;;4.03;3.42;;;24.10;41.90;;;;;;4977952;28;20564;-87
2023/06/07 08:05:42;;;;;;;3.53;3.22;;;24.00;41.80;;;;;;4977590;28;20129;-90
2023/06/07 08:08:08;;;;;;;4.18;3.55;;;23.90;41.80;;;;;;4975190;28;20036;-91
2023/06/07 08:10:37;;;;;;;6.38;3.72;;;23.80;41.80;;;;;;4981555;28;20046;-88
2023/06/07 08:13:09;;;;;;;4.00;3.33;;;23.80;41.80;;;;;;4980009;28;20034;-88
2023/06/07 08:15:35;;;;;;;4.70;3.47;;;24.00;42.10;;;;;;4972016;28;20039;-89
2023/06/07 08:18:17;;;;;;;3.53;2.92;;;24.20;42.10;;;;;;4981151;28;20108;-88
2023/06/07 08:20:43;;;;;;;3.78;3.17;;;24.50;42.30;;;;;;4975817;28;20137;-91
2023/06/07 08:23:10;;;;;;;3.80;3.42;;;24.70;42.30;;;;;;4974953;28;20126;-90
2023/06/07 08:25:36;;;;;;;5.40;3.67;;;24.80;42.20;;;;;;4978407;28;20046;-91
2023/06/07 08:28:02;;;;;;;5.05;3.75;;;25.00;42.30;;;;;;4981403;28;20962;-91
2023/06/07 08:30:34;;;;;;;4.15;3.75;;;25.10;42.10;;;;;;4981033;28;20121;-89
2023/06/07 08:33:09;;;;;;;3.90;3.42;;;25.20;42.00;;;;;;4980565;28;20451;-90
2023/06/07 08:35:35;;;;;;;5.63;3.67;;;25.30;41.90;;;;;;4981610;28;20042;-90
2023/06/07 08:38:03;;;;;;;4.22;3.78;;;25.40;41.80;;;;;;4982340;28;20937;-91
2023/06/07 08:40:32;;;;;;;4.45;3.22;;;25.40;41.70;;;;;;4967484;28;20358;-89
2023/06/07 08:43:01;;;;;;;3.70;3.40;;;25.50;41.60;;;;;;4978262;28;20031;-88
2023/06/07 08:45:27;;;;;;;4.45;3.40;;;25.50;41.50;;;;;;4979105;28;20560;-91
2023/06/07 08:47:56;;;;;;;4.25;3.42;;;25.60;41.50;;;;;;4981531;28;20123;-86
2023/06/07 08:50:23;;;;;;;4.35;3.95;;;25.60;41.30;;;;;;4977876;28;20101;-89
2023/06/07 08:53:13;;;;;;;5.93;4.00;;;25.60;41.30;;;;;;4980801;28;20061;-90
2023/06/07 08:55:58;;;;;;;5.53;4.55;;;25.60;41.30;;;;;;4970279;28;20050;-83
2023/06/07 08:58:26;;;;;;;4.38;3.95;;;25.80;41.30;;;;;;4977314;28;20034;-87
2023/06/07 09:00:58;;;;;;;3.70;3.22;;;25.90;41.00;;;;;;4979632;28;20133;-86
2023/06/07 09:03:25;;;;;;;4.85;3.80;;;26.10;40.80;;;;;;4986344;28;20065;-83
2023/06/07 09:05:55;;;;;;;4.63;4.22;;;26.40;40.70;;;;;;4975284;28;20034;-86
2023/06/07 09:08:24;;;;;;;6.60;4.10;;;26.50;40.40;;;;;;4975849;28;20030;-85
2023/06/07 09:10:50;;;;;;;7.13;4.03;;;26.60;40.30;;;;;;4982482;28;20270;-85
2023/06/07 09:13:20;;;;;;;7.25;5.40;;;26.70;40.20;;;;;;4981810;28;20164;-85
2023/06/07 09:15:49;;;;;;;4.80;4.05;;;26.80;40.00;;;;;;4975370;28;20469;-89
2023/06/07 09:18:15;;;;;;;5.18;4.68;;;26.80;39.90;;;;;;4981004;28;20049;-88
2023/06/07 09:20:41;;;;;;;4.97;3.85;;;26.90;39.70;;;;;;4981202;28;20062;-87
2023/06/07 09:23:11;;;;;;;4.55;3.60;;;27.10;39.70;;;;;;4971017;28;20479;-88
2023/06/07 09:25:38;;;;;;;5.82;4.18;;;27.30;39.50;;;;;;4975292;28;20035;-89
2023/06/07 09:28:13;;;;;;;5.43;3.70;;;27.40;39.30;;;;;;4986748;28;20039;-89
2023/06/07 09:31:00;;;;;;;5.38;3.67;;;27.50;39.10;;;;;;4980052;28;20094;-88
2023/06/07 09:33:36;;;;;;;6.32;4.03;;;27.60;38.90;;;;;;4977517;28;20030;-89
2023/06/07 09:36:13;;;;;;;6.20;4.07;;;27.80;38.90;;;;;;4980910;28;20046;-88
2023/06/07 09:38:40;;;;;;;5.45;4.18;;;27.90;38.80;;;;;;4985280;28;20041;-86
2023/06/07 09:41:07;;;;;;;5.00;4.22;;;28.00;38.60;;;;;;4983621;28;20030;-85
2023/06/07 09:43:46;;;;;;;5.18;3.78;;;28.10;38.50;;;;;;4980724;28;20146;-86
2023/06/07 09:46:16;;;;;;;7.32;4.20;;;28.20;38.40;;;;;;4986671;28;20038;-86
2023/06/07 09:48:48;;;;;;;5.45;4.07;;;28.40;38.40;;;;;;4978139;28;20042;-85
2023/06/07 09:51:15;;;;;;;8.07;4.32;;;28.50;38.20;;;;;;4991255;28;20038;-85
2023/06/07 09:54:00;;;;;;;4.32;3.85;;;28.60;38.20;;;;;;4982770;28;20042;-85
2023/06/07 09:56:27;;;;;;;4.15;3.72;;;28.70;37.90;;;;;;4982633;28;20123;-87
2023/06/07 09:59:13;;;;;;;7.55;4.93;;;28.80;37.90;;;;;;4981067;28;20054;-85
2023/06/07 10:01:42;;;;;;;8.73;5.05;;;28.90;37.50;;;;;;4979010;28;20065;-85
2023/06/07 10:04:12;;;;;;;6.72;4.35;;;29.00;37.60;;;;;;4971550;28;20030;-85
2023/06/07 10:06:43;;;;;;;4.90;4.20;;;29.00;37.40;;;;;;4989699;28;20335;-86
2023/06/07 10:09:17;;;;;;;5.22;4.72;;;29.20;37.30;;;;;;4981951;28;20033;-84
2023/06/07 10:11:46;;;;;;;5.72;4.65;;;29.20;37.20;;;;;;4983356;28;20312;-89
2023/06/07 10:14:20;;;;;;;6.07;4.18;;;29.30;37.10;;;;;;4992102;28;20038;-89
2023/06/07 10:17:00;;;;;;;4.80;3.78;;;29.50;37.10;;;;;;4980719;28;20125;-90
2023/06/07 10:19:41;;;;;;;5.70;4.22;;;29.50;36.90;;;;;;4984258;28;20046;-86
2023/06/07 10:22:14;;;;;;;8.18;4.45;;;29.60;36.80;;;;;;4970012;28;20533;-85
2023/06/07 10:25:04;;;;;;;6.53;3.97;;;29.70;36.90;;;;;;4971812;28;20042;-91
2023/06/07 10:27:43;;;;;;;6.03;4.53;;;29.80;36.70;;;;;;4972891;28;20516;-88
2023/06/07 10:30:12;;;;;;;6.70;4.65;;;29.80;36.80;;;;;;4982611;28;20286;-88
2023/06/07 10:32:41;;;;;;;7.63;4.47;;;29.90;36.80;;;;;;4975237;28;20038;-88
2023/06/07 10:35:11;;;;;;;5.95;4.80;;;30.00;36.70;;;;;;4978511;28;20452;-89
2023/06/07 10:37:38;;;;;;;6.00;4.57;;;30.10;36.60;;;;;;4978576;28;20045;-89
2023/06/07 10:40:11;;;;;;;6.03;4.00;;;30.20;36.50;;;;;;4982795;28;20030;-90
2023/06/07 10:42:41;;;;;;;5.45;4.30;;;30.30;36.50;;;;;;4977721;28;20133;-88
2023/06/07 10:45:11;;;;;;;5.78;3.88;;;30.40;36.40;;;;;;4968894;28;20034;-87
2023/06/07 10:47:38;;;;;;;5.10;4.07;;;30.40;36.30;;;;;;4983511;28;20061;-88
2023/06/07 10:50:04;;;;;;;5.30;3.85;;;30.60;36.30;;;;;;4979212;28;20041;-88
2023/06/07 10:52:30;;;;;;;7.05;4.70;;;30.60;36.10;;;;;;4980235;28;20052;-84
2023/06/07 10:54:56;;;;;;;6.20;4.30;;;30.80;36.00;;;;;;4973373;28;20502;-83
2023/06/07 10:57:37;;;;;;;7.10;4.57;;;30.90;35.90;;;;;;4981449;28;20026;-89
2023/06/07 11:00:28;;;;;;;5.00;3.90;;;31.00;35.80;;;;;;4986581;28;20046;-87
2023/06/07 11:03:12;;;;;;;7.28;4.65;;;31.20;35.70;;;;;;4994613;28;20121;-88
2023/06/07 11:05:57;;;;;;;3.47;2.92;;;31.30;35.70;;;;;;4967167;28;20030;-89
2023/06/07 11:08:30;;;;;;;3.72;3.38;;;31.40;35.50;;;;;;4983263;28;20064;-87
2023/06/07 11:11:00;;;;;;;3.60;3.30;;;31.50;35.40;;;;;;4985894;28;20138;-89
2023/06/07 11:13:27;;;;;;;5.13;3.45;;;31.60;35.40;;;;;;4978373;28;20054;-88
2023/06/07 11:16:13;;;;;;;4.57;3.92;;;31.70;35.30;;;;;;4973035;28;20660;-90
2023/06/07 11:19:13;;;;;;;4.93;3.20;;;31.80;35.20;;;;;;4974919;28;20030;-91
2023/06/07 11:21:58;;;;;;;4.32;3.92;;;31.90;35.00;;;;;;4977113;28;20478;-86
2023/06/07 11:24:27;;;;;;;4.85;3.78;;;32.00;35.00;;;;;;4979549;28;20386;-84
2023/06/07 11:26:53;;;;;;;4.88;3.45;;;32.10;35.00;;;;;;4977843;28;20042;-87
2023/06/07 11:29:20;;;;;;;4.03;3.55;;;32.10;34.90;;;;;;4978536;28;20375;-87
2023/06/07 11:31:48;;;;;;;3.63;3.15;;;32.20;34.80;;;;;;4975698;28;20428;-88
2023/06/07 11:34:14;;;;;;;4.18;3.78;;;32.30;34.70;;;;;;4976529;28;20107;-88
2023/06/07 11:36:41;;;;;;;4.75;3.72;;;32.40;34.60;;;;;;4983645;28;20042;-91
2023/06/07 11:39:08;;;;;;;5.07;3.50;;;32.50;34.60;;;;;;4979538;28;20259;-88
2023/06/07 11:41:35;;;;;;;3.28;2.80;;;32.50;34.40;;;;;;4980576;28;20160;-90
2023/06/07 11:44:07;;;;;;;;;;;32.70;34.40;;;;;;4976892;28;20696;-88
2023/06/07 11:46:34;;;;;;;3.75;3.10;;;32.80;34.60;;;;;;4986881;28;20404;-88
2023/06/07 11:49:09;;;;;;;4.82;3.15;;;32.80;34.50;;;;;;4980971;28;20041;-89
2023/06/07 11:51:37;;;;;;;3.33;2.95;;;32.90;34.30;;;;;;4982524;28;20040;-88
2023/06/07 11:54:08;;;;;;;3.60;3.30;;;33.00;34.30;;;;;;4980165;28;20045;-88
2023/06/07 11:56:37;;;;;;;3.88;3.38;;;33.00;34.20;;;;;;4977142;28;20046;-87
2023/06/07 11:59:04;;;;;;;3.78;3.00;;;33.10;34.20;;;;;;4982169;28;20662;-88
2023/06/07 12:01:31;;;;;;;3.45;3.15;;;33.20;34.10;;;;;;4977560;28;20406;-91
2023/06/07 12:03:58;;;;;;;3.63;3.30;;;33.20;34.10;;;;;;4976018;28;20065;-89
2023/06/07 12:06:26;;;;;;;5.47;3.47;;;33.20;33.90;;;;;;4965283;28;20038;-89
2023/06/07 12:08:54;;;;;;;3.92;2.90;;;33.30;33.90;;;;;;4982405;28;20193;-90
2023/06/07 12:11:27;;;;;;;4.03;3.38;;;33.40;33.90;;;;;;4978967;28;20268;-87
2023/06/07 12:14:31;;;;;;;2.75;2.30;;;33.50;33.90;;;;;;4976885;28;20037;-88
2023/06/07 12:16:58;;;;;;;3.63;3.20;;;33.60;33.70;;;;;;4980117;28;20085;-89
2023/06/07 12:19:24;;;;;;;3.38;3.08;;;33.70;33.70;;;;;;4982839;28;20038;-89
2023/06/07 12:21:50;;;;;;;4.53;2.97;;;33.70;33.60;;;;;;4974248;28;20038;-89
2023/06/07 12:24:19;;;;;;;3.08;2.78;;;33.80;33.60;;;;;;4978569;28;20030;-82
2023/06/07 12:26:45;;;;;;;4.60;3.40;;;33.90;33.50;;;;;;4982825;28;20498;-85
2023/06/07 12:29:15;;;;;;;4.38;3.15;;;33.90;33.50;;;;;;4982813;28;20081;-85
2023/06/07 12:31:41;;;;;;;2.85;2.63;;;34.00;33.40;;;;;;4975832;28;20134;-87
2023/06/07 12:34:11;;;;;;;3.60;3.28;;;34.10;33.40;;;;;;4978051;28;20069;-87
2023/06/07 12:36:40;;;;;;;4.60;2.75;;;34.20;33.40;;;;;;4984113;28;20137;-88
2023/06/07 12:39:11;;;;;;;5.72;3.13;;;34.30;33.40;;;;;;4978066;28;20030;-85
2023/06/07 12:41:38;;;;;;;4.22;2.90;;;34.30;33.20;;;;;;4985187;28;20092;-87
2023/06/07 12:44:07;;;;;;;7.47;3.38;;;34.40;33.20;;;;;;4977358;28;20038;-86
2023/06/07 12:46:34;;;;;;;2.63;2.42;;;34.50;33.10;;;;;;4988283;28;20802;-89
2023/06/07 12:49:00;;;;;;;3.03;2.33;;;34.60;33.10;;;;;;4985433;28;20141;-87
2023/06/07 12:51:26;;;;;;;3.22;2.55;;;34.60;32.90;;;;;;4977488;28;20090;-86
2023/06/07 12:54:01;;;;;;;2.90;2.70;;;34.80;33.00;;;;;;4981999;28;20039;-89
2023/06/07 12:56:28;;;;;;;2.92;2.63;;;34.90;33.50;;;;;;4980746;28;20050;-89
2023/06/07 12:58:57;;;;;;;3.13;2.60;;;35.00;32.90;;;;;;4973441;28;20095;-87
2023/06/07 13:01:23;;;;;;;3.53;2.55;;;35.00;32.70;;;;;;4978678;28;20037;-85
2023/06/07 13:03:49;;;;;;;3.42;2.70;;;35.20;32.70;;;;;;4973346;28;20030;-85